Terminal Aerodrome Forecast
Issued by NWS

Home | Current Version | Previous Version | Text Only | Print | Product List | Glossary On
Versions: 1 2 3 4 5 6 7 8 9 10 11 12 13 14 15 16 17 18 19 20 21 22 23 24 25
000
FTUS44 KLIX 271300 AAA
TAFHUM
TAF AMD
KHUM 271301Z 2713/2812 12010KT 4SM -RA BR OVC007
      TEMPO 2713/2716 1SM RA BR
     FM271900 16012KT 3SM +SHRA BR OVC015
     FM280000 18008KT 1SM +SHRA BR OVC007=

USA.gov is the U.S. government's official web portal to all federal, state and local government web resources and services.